createdAt,value
2017-09-08T00:00:32.992Z,0
2017-09-08T00:01:13.583Z,0
2017-09-08T00:01:54.133Z,0
2017-09-08T00:02:34.706Z,0
2017-09-08T00:03:15.216Z,0
2017-09-08T00:03:55.759Z,0
2017-09-08T00:04:36.281Z,0
2017-09-08T00:05:16.827Z,0
2017-09-08T00:05:57.336Z,0
2017-09-08T00:06:37.870Z,0
2017-09-08T00:07:18.427Z,0
2017-09-08T00:07:58.990Z,0
2017-09-08T00:08:39.562Z,0
2017-09-08T00:09:20.112Z,0
2017-09-08T00:10:00.652Z,0
2017-09-08T00:10:41.167Z,0
2017-09-08T00:11:21.684Z,0
2017-09-08T00:12:02.284Z,0
2017-09-08T00:12:42.873Z,0
2017-09-08T00:13:23.432Z,0
2017-09-08T00:14:03.950Z,0
2017-09-08T00:14:44.533Z,0
2017-09-08T00:15:25.093Z,0
2017-09-08T00:16:05.580Z,0
2017-09-08T00:16:46.141Z,0
2017-09-08T00:17:26.772Z,0
2017-09-08T00:18:07.275Z,0
2017-09-08T00:18:47.860Z,0
2017-09-08T00:19:28.370Z,0
2017-09-08T00:20:08.926Z,0
2017-09-08T00:20:49.454Z,0
2017-09-08T00:21:30.005Z,0
2017-09-08T00:22:10.574Z,0
2017-09-08T00:22:51.157Z,0
2017-09-08T00:23:31.661Z,0
2017-09-08T00:24:12.252Z,0
2017-09-08T00:24:52.795Z,0
2017-09-08T00:25:33.361Z,0
2017-09-08T00:26:13.903Z,0
2017-09-08T00:26:54.474Z,0
2017-09-08T00:27:35.013Z,0
2017-09-08T00:28:15.608Z,0
2017-09-08T00:28:56.103Z,0
2017-09-08T00:29:36.692Z,0
2017-09-08T00:30:17.178Z,0
2017-09-08T00:30:57.712Z,0
2017-09-08T00:31:38.280Z,0
2017-09-08T00:32:18.804Z,0
2017-09-08T00:32:59.304Z,0
2017-09-08T00:33:39.857Z,0
2017-09-08T00:34:20.411Z,0
2017-09-08T00:35:00.992Z,0
2017-09-08T00:35:41.559Z,0
2017-09-08T00:36:22.077Z,0
2017-09-08T00:37:02.641Z,0
2017-09-08T00:37:43.238Z,0
2017-09-08T00:38:23.744Z,0
2017-09-08T00:39:04.234Z,0
2017-09-08T00:39:44.805Z,0
2017-09-08T00:40:25.340Z,0
2017-09-08T00:41:05.967Z,0
2017-09-08T00:41:46.447Z,0
2017-09-08T00:42:27.017Z,0
2017-09-08T00:43:07.558Z,0
2017-09-08T00:43:48.121Z,0
2017-09-08T00:44:28.740Z,0
2017-09-08T00:45:09.313Z,0
2017-09-08T00:45:49.834Z,0
2017-09-08T00:46:30.444Z,0
2017-09-08T00:47:10.985Z,0
2017-09-08T00:47:51.517Z,0
2017-09-08T00:48:32.044Z,0
2017-09-08T00:49:12.606Z,0
2017-09-08T00:49:53.172Z,0
2017-09-08T00:50:33.732Z,0
2017-09-08T00:51:14.303Z,0
2017-09-08T00:51:54.859Z,0
2017-09-08T00:52:35.428Z,0
2017-09-08T00:53:15.976Z,0
2017-09-08T00:53:56.492Z,0
2017-09-08T00:54:37.039Z,0
2017-09-08T00:55:17.597Z,0
2017-09-08T00:55:58.148Z,0
2017-09-08T00:56:38.676Z,0
2017-09-08T00:57:19.175Z,0
2017-09-08T00:57:59.717Z,0
2017-09-08T00:58:40.409Z,0
2017-09-08T00:59:20.947Z,0
2017-09-08T01:00:01.744Z,0
2017-09-08T01:00:42.258Z,0
2017-09-08T01:01:22.901Z,0
2017-09-08T01:02:03.479Z,0
2017-09-08T01:02:44.064Z,0
2017-09-08T01:03:24.608Z,0
2017-09-08T01:04:05.147Z,0
2017-09-08T01:04:45.702Z,0
2017-09-08T01:05:26.254Z,0
2017-09-08T01:06:06.798Z,0
2017-09-08T01:06:47.343Z,0
2017-09-08T01:07:27.930Z,0
2017-09-08T01:08:08.486Z,0
2017-09-08T01:08:49.053Z,0
2017-09-08T01:09:29.616Z,0
2017-09-08T01:10:10.192Z,0
2017-09-08T01:10:50.716Z,0
2017-09-08T01:11:31.240Z,0
2017-09-08T01:12:11.801Z,0
2017-09-08T01:12:52.370Z,0
2017-09-08T01:13:32.943Z,0
2017-09-08T01:14:13.457Z,0
2017-09-08T01:14:54.022Z,0
2017-09-08T01:15:34.637Z,0
2017-09-08T01:16:15.122Z,0
2017-09-08T01:16:55.722Z,0
2017-09-08T01:17:36.216Z,0
2017-09-08T01:18:16.757Z,0
2017-09-08T01:18:57.312Z,0
2017-09-08T01:19:37.881Z,0
2017-09-08T01:20:18.398Z,0
2017-09-08T01:20:58.928Z,0
2017-09-08T01:21:39.498Z,0
2017-09-08T01:22:19.998Z,0
2017-09-08T01:23:00.610Z,0
2017-09-08T01:23:41.156Z,0
2017-09-08T01:24:21.719Z,0
2017-09-08T01:25:02.281Z,0
2017-09-08T01:25:42.843Z,0
2017-09-08T01:26:23.412Z,0
2017-09-08T01:27:03.974Z,0
2017-09-08T01:27:44.510Z,0
2017-09-08T01:28:25.098Z,0
2017-09-08T01:29:05.628Z,0
2017-09-08T01:29:46.178Z,0
2017-09-08T01:30:26.705Z,0
2017-09-08T01:31:07.408Z,0
2017-09-08T01:31:47.972Z,0
2017-09-08T01:32:28.533Z,0
2017-09-08T01:33:09.078Z,0
2017-09-08T01:33:49.655Z,0
2017-09-08T01:34:30.218Z,0
2017-09-08T01:35:10.783Z,0
2017-09-08T01:35:51.411Z,0
2017-09-08T01:36:31.985Z,0
2017-09-08T01:37:12.548Z,0
2017-09-08T01:37:53.143Z,0
2017-09-08T01:38:33.715Z,0
2017-09-08T01:39:14.296Z,0
2017-09-08T01:39:54.863Z,0
2017-09-08T01:40:35.415Z,0
2017-09-08T01:41:15.967Z,0
2017-09-08T01:41:56.536Z,0
2017-09-08T01:42:37.102Z,0
2017-09-08T01:43:17.664Z,0
2017-09-08T01:43:58.232Z,0
2017-09-08T01:44:38.800Z,0
2017-09-08T01:45:19.349Z,0
2017-09-08T01:45:59.903Z,0
2017-09-08T01:46:40.454Z,0
2017-09-08T01:47:21.007Z,0
2017-09-08T01:48:01.532Z,0
2017-09-08T01:48:42.095Z,0
2017-09-08T01:49:22.663Z,0
2017-09-08T01:50:03.226Z,0
2017-09-08T01:50:43.786Z,0
2017-09-08T01:51:24.296Z,0
2017-09-08T01:52:04.825Z,0
2017-09-08T01:52:45.356Z,0
2017-09-08T01:53:25.903Z,0
2017-09-08T01:54:06.454Z,0
2017-09-08T01:54:47.017Z,0
2017-09-08T01:55:27.581Z,0
2017-09-08T01:56:08.137Z,0
2017-09-08T01:56:48.702Z,0
2017-09-08T01:57:29.294Z,0
2017-09-08T01:58:09.808Z,0
2017-09-08T01:58:50.363Z,0
2017-09-08T01:59:30.906Z,0
2017-09-08T02:00:11.430Z,0
2017-09-08T02:00:51.967Z,0
2017-09-08T02:01:32.509Z,0
2017-09-08T02:02:13.085Z,0
2017-09-08T02:02:53.629Z,0
2017-09-08T02:03:34.177Z,0
2017-09-08T02:04:14.740Z,0
2017-09-08T02:04:55.349Z,0
2017-09-08T02:05:35.912Z,0
2017-09-08T02:06:16.489Z,0
2017-09-08T02:06:57.062Z,0
2017-09-08T02:07:37.612Z,0
2017-09-08T02:08:18.188Z,0
2017-09-08T02:08:58.736Z,0
2017-09-08T02:09:39.283Z,0
2017-09-08T02:10:19.833Z,0
2017-09-08T02:11:00.384Z,0
2017-09-08T02:11:40.958Z,0
2017-09-08T02:12:21.473Z,0
2017-09-08T02:13:02.024Z,0
2017-09-08T02:13:42.520Z,0
2017-09-08T02:14:23.072Z,0
2017-09-08T02:15:03.636Z,0
2017-09-08T02:15:44.209Z,0
2017-09-08T02:16:24.765Z,0
2017-09-08T02:17:05.319Z,0
2017-09-08T02:17:45.858Z,0
2017-09-08T02:18:26.406Z,0
2017-09-08T02:19:06.957Z,0
2017-09-08T02:19:47.491Z,0
2017-09-08T02:20:28.055Z,0
2017-09-08T02:21:08.586Z,0
2017-09-08T02:21:49.135Z,0
2017-09-08T02:22:29.690Z,0
2017-09-08T02:23:10.251Z,0
2017-09-08T02:23:50.843Z,0
2017-09-08T02:24:31.408Z,0
2017-09-08T02:25:11.957Z,0
2017-09-08T02:25:52.516Z,0
2017-09-08T02:26:33.083Z,0
2017-09-08T02:27:13.631Z,0
2017-09-08T02:27:54.182Z,0
2017-09-08T02:28:34.749Z,0
2017-09-08T02:29:15.294Z,0
2017-09-08T02:29:55.844Z,0
2017-09-08T02:30:36.402Z,0
2017-09-08T02:31:16.988Z,0
2017-09-08T02:31:57.495Z,0
2017-09-08T02:32:38.062Z,0
2017-09-08T02:33:18.617Z,0
2017-09-08T02:33:59.176Z,0
2017-09-08T02:34:39.715Z,0
2017-09-08T02:35:20.248Z,0
2017-09-08T02:36:00.788Z,0
2017-09-08T02:36:41.342Z,0
2017-09-08T02:37:21.890Z,0
2017-09-08T02:38:02.446Z,0
2017-09-08T02:38:42.988Z,0
2017-09-08T02:39:23.550Z,0
2017-09-08T02:40:04.118Z,0
2017-09-08T02:40:44.662Z,0
2017-09-08T02:41:25.195Z,0
2017-09-08T02:42:05.778Z,0
2017-09-08T02:42:46.320Z,0
2017-09-08T02:43:26.874Z,0
2017-09-08T02:44:07.420Z,0
2017-09-08T02:44:47.979Z,0
2017-09-08T02:45:28.512Z,0
2017-09-08T02:46:09.055Z,0
2017-09-08T02:46:49.590Z,0
2017-09-08T02:47:30.152Z,0
2017-09-08T02:48:10.709Z,0
2017-09-08T02:48:51.265Z,0
2017-09-08T02:49:31.819Z,0
2017-09-08T02:50:12.368Z,0
2017-09-08T02:50:52.913Z,0
2017-09-08T02:51:33.467Z,0
2017-09-08T02:52:14.016Z,0
2017-09-08T02:52:54.607Z,0
2017-09-08T02:53:35.117Z,0
2017-09-08T02:54:15.689Z,0
2017-09-08T02:54:56.235Z,0
2017-09-08T02:55:36.775Z,0
2017-09-08T02:56:17.327Z,0
2017-09-08T02:56:57.882Z,0
2017-09-08T02:57:38.416Z,0
2017-09-08T02:58:18.973Z,0
2017-09-08T02:58:59.529Z,0
2017-09-08T02:59:40.071Z,0
2017-09-08T03:00:20.603Z,0
2017-09-08T03:01:01.186Z,0
2017-09-08T03:01:41.733Z,0
2017-09-08T03:02:22.324Z,0
2017-09-08T03:03:02.871Z,0
2017-09-08T03:03:43.436Z,0
2017-09-08T03:04:23.987Z,0
2017-09-08T03:05:04.578Z,0
2017-09-08T03:05:45.118Z,0
2017-09-08T03:06:25.683Z,0
2017-09-08T03:07:06.226Z,0
2017-09-08T03:07:46.804Z,0
2017-09-08T03:08:27.357Z,0
2017-09-08T03:09:07.905Z,0
2017-09-08T03:09:48.459Z,0
2017-09-08T03:10:29.025Z,0
2017-09-08T03:11:10.335Z,0
2017-09-08T03:11:50.143Z,0
2017-09-08T03:12:30.694Z,0
2017-09-08T03:13:11.268Z,0
2017-09-08T03:13:51.846Z,0
2017-09-08T03:14:32.394Z,0
2017-09-08T03:15:12.889Z,0
2017-09-08T03:15:53.461Z,0
2017-09-08T03:16:33.995Z,0
2017-09-08T03:17:14.561Z,0
2017-09-08T03:17:55.079Z,0
2017-09-08T03:18:35.623Z,0
2017-09-08T03:19:16.156Z,0
2017-09-08T03:19:56.685Z,0
2017-09-08T03:20:37.235Z,0
2017-09-08T03:21:17.797Z,0
2017-09-08T03:21:58.350Z,0
2017-09-08T03:22:38.904Z,0
2017-09-08T03:23:19.483Z,0
2017-09-08T03:24:00.021Z,0
2017-09-08T03:24:40.595Z,0
2017-09-08T03:25:21.163Z,0
2017-09-08T03:26:01.737Z,0
2017-09-08T03:26:42.291Z,0
2017-09-08T03:27:22.839Z,0
2017-09-08T03:28:03.400Z,0
2017-09-08T03:28:43.953Z,0
2017-09-08T03:29:24.506Z,0
2017-09-08T03:30:05.060Z,0
2017-09-08T03:30:45.623Z,0
2017-09-08T03:31:26.205Z,0
2017-09-08T03:32:06.748Z,0
2017-09-08T03:32:47.310Z,0
2017-09-08T03:33:27.813Z,0
2017-09-08T03:34:08.387Z,0
2017-09-08T03:34:48.924Z,0
2017-09-08T03:35:29.493Z,0
2017-09-08T03:36:10.037Z,0
2017-09-08T03:36:50.569Z,0
2017-09-08T03:37:31.119Z,0
2017-09-08T03:38:11.671Z,0
2017-09-08T03:38:52.224Z,0
2017-09-08T03:39:32.780Z,0
2017-09-08T03:40:13.340Z,0
2017-09-08T03:40:53.911Z,0
2017-09-08T03:41:34.486Z,0
2017-09-08T03:42:15.041Z,0
2017-09-08T03:42:55.621Z,0
2017-09-08T03:43:36.204Z,0
2017-09-08T03:44:16.719Z,0
2017-09-08T03:44:57.255Z,0
2017-09-08T03:45:37.824Z,0
2017-09-08T03:46:18.352Z,0
2017-09-08T03:46:58.924Z,0
2017-09-08T03:47:39.485Z,0
2017-09-08T03:48:20.049Z,0
2017-09-08T03:49:00.586Z,0
2017-09-08T03:49:41.166Z,0
2017-09-08T03:50:21.701Z,0
2017-09-08T03:51:02.257Z,0
2017-09-08T03:51:42.840Z,0
2017-09-08T03:52:23.453Z,0
2017-09-08T03:53:04.022Z,0
2017-09-08T03:53:44.559Z,0
2017-09-08T03:54:25.111Z,0
2017-09-08T03:55:05.660Z,0
2017-09-08T03:55:46.207Z,0
2017-09-08T03:56:26.789Z,0
2017-09-08T03:57:07.336Z,0
2017-09-08T03:57:47.849Z,0
2017-09-08T03:58:28.415Z,0
2017-09-08T03:59:08.946Z,0
2017-09-08T03:59:49.513Z,0
2017-09-08T04:00:30.062Z,0
2017-09-08T04:01:10.605Z,0
2017-09-08T04:01:51.139Z,0
2017-09-08T04:02:31.701Z,0
2017-09-08T04:03:12.274Z,0
2017-09-08T04:03:52.826Z,0
2017-09-08T04:04:33.365Z,0
2017-09-08T04:05:13.942Z,0
2017-09-08T04:05:54.508Z,0
2017-09-08T04:06:35.031Z,0
2017-09-08T04:07:15.582Z,0
2017-09-08T04:07:56.127Z,0
2017-09-08T04:08:36.680Z,0
2017-09-08T04:09:17.230Z,0
2017-09-08T04:09:57.786Z,0
2017-09-08T04:10:38.332Z,0
2017-09-08T04:11:18.889Z,0
2017-09-08T04:11:59.434Z,0
2017-09-08T04:12:39.994Z,0
2017-09-08T04:13:20.541Z,0
2017-09-08T04:14:01.083Z,0
2017-09-08T04:14:41.616Z,0
2017-09-08T04:15:22.187Z,0
2017-09-08T04:16:02.745Z,0
2017-09-08T04:16:43.292Z,0
2017-09-08T04:17:23.866Z,0
2017-09-08T04:18:04.413Z,0
2017-09-08T04:18:44.960Z,0
2017-09-08T04:19:25.516Z,0
2017-09-08T04:20:06.075Z,0
2017-09-08T04:20:46.612Z,0
2017-09-08T04:21:27.165Z,0
2017-09-08T04:22:07.715Z,0
2017-09-08T04:22:48.261Z,0
2017-09-08T04:23:28.813Z,0
2017-09-08T04:24:09.374Z,0
2017-09-08T04:24:49.948Z,0
2017-09-08T04:25:30.510Z,0
2017-09-08T04:26:11.075Z,4
2017-09-08T04:26:51.634Z,4
2017-09-08T04:27:32.186Z,4
2017-09-08T04:28:12.762Z,0
2017-09-08T04:28:53.315Z,4
2017-09-08T04:29:33.867Z,4
2017-09-08T04:30:14.372Z,4
2017-09-08T04:30:54.922Z,4
2017-09-08T04:31:35.452Z,4
2017-09-08T04:32:16.010Z,4
2017-09-08T04:32:56.570Z,8
2017-09-08T04:33:37.135Z,8
2017-09-08T04:34:17.716Z,8
2017-09-08T04:34:58.261Z,8
2017-09-08T04:35:38.828Z,12
2017-09-08T04:36:19.387Z,12
2017-09-08T04:36:59.939Z,8
2017-09-08T04:37:40.471Z,12
2017-09-08T04:38:21.017Z,16
2017-09-08T04:39:01.572Z,16
2017-09-08T04:39:42.165Z,16
2017-09-08T04:40:22.686Z,20
2017-09-08T04:41:03.241Z,20
2017-09-08T04:41:43.776Z,24
2017-09-08T04:42:24.341Z,24
2017-09-08T04:43:04.917Z,24
2017-09-08T04:43:45.464Z,28
2017-09-08T04:44:26.017Z,28
2017-09-08T04:45:06.575Z,32
2017-09-08T04:45:47.132Z,36
2017-09-08T04:46:27.696Z,36
2017-09-08T04:47:08.257Z,40
2017-09-08T04:47:48.816Z,44
2017-09-08T04:48:29.376Z,48
2017-09-08T04:49:09.935Z,48
2017-09-08T04:49:50.502Z,56
2017-09-08T04:50:31.052Z,60
2017-09-08T04:51:11.622Z,60
2017-09-08T04:51:52.186Z,64
2017-09-08T04:52:32.737Z,72
2017-09-08T04:53:13.304Z,80
2017-09-08T04:53:53.862Z,80
2017-09-08T04:54:34.420Z,92
2017-09-08T04:55:14.968Z,100
2017-09-08T04:55:55.531Z,104
2017-09-08T04:56:36.086Z,112
2017-09-08T04:57:16.644Z,116
2017-09-08T04:57:57.179Z,128
2017-09-08T04:58:37.755Z,136
2017-09-08T04:59:18.289Z,144
2017-09-08T04:59:58.849Z,156
2017-09-08T05:00:39.445Z,164
2017-09-08T05:01:23.401Z,176
2017-09-08T05:02:08.449Z,188
2017-09-08T05:02:49.111Z,204
2017-09-08T05:03:29.806Z,212
2017-09-08T05:04:10.928Z,228
2017-09-08T05:04:51.671Z,240
2017-09-08T05:05:32.220Z,248
2017-09-08T05:06:12.796Z,260
2017-09-08T05:06:53.382Z,268
2017-09-08T05:07:33.993Z,276
2017-09-08T05:08:14.505Z,280
2017-09-08T05:08:55.267Z,280
2017-09-08T05:09:35.788Z,280
2017-09-08T05:10:16.318Z,284
2017-09-08T05:10:56.861Z,284
2017-09-08T05:11:37.420Z,284
2017-09-08T05:12:17.980Z,280
2017-09-08T05:12:58.539Z,284
2017-09-08T05:13:39.088Z,280
2017-09-08T05:14:19.635Z,276
2017-09-08T05:15:00.178Z,272
2017-09-08T05:15:41.043Z,264
2017-09-08T05:16:21.487Z,256
2017-09-08T05:17:02.046Z,248
2017-09-08T05:17:42.726Z,244
2017-09-08T05:18:23.261Z,240
2017-09-08T05:19:03.869Z,236
2017-09-08T05:19:44.445Z,228
2017-09-08T05:20:24.998Z,224
2017-09-08T05:21:05.573Z,216
2017-09-08T05:21:46.138Z,212
2017-09-08T05:22:26.702Z,204
2017-09-08T05:23:07.265Z,204
2017-09-08T05:23:47.852Z,200
2017-09-08T05:24:28.408Z,200
2017-09-08T05:25:08.976Z,200
2017-09-08T05:25:49.531Z,200
2017-09-08T05:26:30.114Z,200
2017-09-08T05:27:10.668Z,200
2017-09-08T05:27:51.220Z,200
2017-09-08T05:28:31.775Z,208
2017-09-08T05:29:12.329Z,216
2017-09-08T05:29:52.899Z,224
2017-09-08T05:30:33.454Z,228
2017-09-08T05:31:14.020Z,236
2017-09-08T05:31:54.590Z,240
2017-09-08T05:32:35.136Z,252
2017-09-08T05:33:15.774Z,264
2017-09-08T05:33:56.341Z,276
2017-09-08T05:34:36.911Z,296
2017-09-08T05:35:17.479Z,308
2017-09-08T05:35:58.010Z,316
2017-09-08T05:36:38.707Z,332
2017-09-08T05:37:19.267Z,340
2017-09-08T05:37:59.825Z,348
2017-09-08T05:38:40.385Z,356
2017-09-08T05:39:20.947Z,360
2017-09-08T05:40:01.507Z,368
2017-09-08T05:40:42.072Z,388
2017-09-08T05:41:22.640Z,404
2017-09-08T05:42:03.196Z,420
2017-09-08T05:42:43.767Z,432
2017-09-08T05:43:24.370Z,452
2017-09-08T05:44:04.943Z,480
2017-09-08T05:44:45.500Z,508
2017-09-08T05:45:26.052Z,532
2017-09-08T05:46:06.619Z,560
2017-09-08T05:46:47.188Z,580
2017-09-08T05:47:27.736Z,604
2017-09-08T05:48:08.280Z,616
2017-09-08T05:48:48.829Z,636
2017-09-08T05:49:29.390Z,660
2017-09-08T05:50:09.953Z,684
2017-09-08T05:50:50.496Z,712
2017-09-08T05:51:31.066Z,728
2017-09-08T05:52:11.610Z,744
2017-09-08T05:52:52.173Z,760
2017-09-08T05:53:32.760Z,776
2017-09-08T05:54:13.323Z,804
2017-09-08T05:54:53.883Z,844
2017-09-08T05:55:34.455Z,892
2017-09-08T05:56:15.029Z,944
2017-09-08T05:56:55.609Z,972
2017-09-08T05:57:36.177Z,992
2017-09-08T05:58:16.739Z,1000
2017-09-08T05:58:57.430Z,988
2017-09-08T05:59:37.996Z,976
2017-09-08T06:00:18.545Z,960
2017-09-08T06:00:59.115Z,940
2017-09-08T06:01:39.724Z,936
2017-09-08T06:02:20.258Z,944
2017-09-08T06:03:00.921Z,968
2017-09-08T06:03:41.456Z,1020
2017-09-08T06:04:22.058Z,1076
2017-09-08T06:05:02.580Z,1112
2017-09-08T06:05:43.155Z,1128
2017-09-08T06:06:23.650Z,1124
2017-09-08T06:07:04.193Z,1108
2017-09-08T06:07:44.774Z,1072
2017-09-08T06:08:25.335Z,1036
2017-09-08T06:09:05.892Z,996
2017-09-08T06:09:46.504Z,968
2017-09-08T06:10:27.052Z,932
2017-09-08T06:11:07.657Z,900
2017-09-08T06:11:48.219Z,856
2017-09-08T06:12:28.784Z,816
2017-09-08T06:13:09.341Z,784
2017-09-08T06:13:49.905Z,764
2017-09-08T06:14:30.464Z,752
2017-09-08T06:15:11.028Z,756
2017-09-08T06:15:51.582Z,752
2017-09-08T06:16:32.147Z,748
2017-09-08T06:17:12.716Z,732
2017-09-08T06:17:53.293Z,720
2017-09-08T06:18:33.865Z,700
2017-09-08T06:19:14.413Z,692
2017-09-08T06:19:55.029Z,680
2017-09-08T06:20:35.533Z,684
2017-09-08T06:21:16.116Z,688
2017-09-08T06:21:56.581Z,700
2017-09-08T06:22:37.170Z,716
2017-09-08T06:23:17.687Z,748
2017-09-08T06:23:58.208Z,792
2017-09-08T06:24:38.733Z,848
2017-09-08T06:25:19.347Z,904
2017-09-08T06:25:59.806Z,972
2017-09-08T06:26:40.334Z,1036
2017-09-08T06:27:20.892Z,1100
2017-09-08T06:28:01.435Z,1148
2017-09-08T06:28:42.011Z,1196
2017-09-08T06:29:22.557Z,1224
2017-09-08T06:30:03.083Z,1228
2017-09-08T06:30:43.632Z,1216
2017-09-08T06:31:24.210Z,1160
2017-09-08T06:32:04.746Z,1092
2017-09-08T06:32:45.300Z,1076
2017-09-08T06:33:25.854Z,1080
2017-09-08T06:34:06.434Z,1064
2017-09-08T06:34:46.988Z,1068
2017-09-08T06:35:27.534Z,1080
2017-09-08T06:36:08.077Z,1080
2017-09-08T06:36:48.634Z,1100
2017-09-08T06:37:29.185Z,1140
2017-09-08T06:38:09.740Z,1188
2017-09-08T06:38:50.291Z,1256
2017-09-08T06:39:30.819Z,1352
2017-09-08T06:40:11.400Z,1448
2017-09-08T06:40:51.987Z,1500
2017-09-08T06:41:32.485Z,1516
2017-09-08T06:42:13.029Z,1500
2017-09-08T06:42:53.588Z,1480
2017-09-08T06:43:34.142Z,1456
2017-09-08T06:44:14.730Z,1412
2017-09-08T06:44:55.222Z,1376
2017-09-08T06:45:35.784Z,1360
2017-09-08T06:46:16.328Z,1328
2017-09-08T06:46:56.884Z,1320
2017-09-08T06:47:37.438Z,1336
2017-09-08T06:48:18.078Z,1340
2017-09-08T06:48:58.639Z,1380
2017-09-08T06:49:39.190Z,1428
2017-09-08T06:50:19.751Z,1504
2017-09-08T06:51:00.303Z,1616
2017-09-08T06:51:40.894Z,1568
2017-09-08T06:52:21.448Z,1560
2017-09-08T06:53:02.024Z,1632
2017-09-08T06:53:42.600Z,1732
2017-09-08T06:54:23.157Z,1744
2017-09-08T06:55:03.723Z,1732
2017-09-08T06:55:44.316Z,1688
2017-09-08T06:56:24.876Z,1652
2017-09-08T06:57:05.423Z,1616
2017-09-08T06:57:45.962Z,1600
2017-09-08T06:58:26.580Z,1640
2017-09-08T06:59:07.011Z,1704
2017-09-08T06:59:47.595Z,1756
2017-09-08T07:00:28.106Z,1828
2017-09-08T07:01:08.644Z,1920
2017-09-08T07:01:49.174Z,2056
2017-09-08T07:02:29.718Z,2232
2017-09-08T07:03:10.305Z,2416
2017-09-08T07:03:50.865Z,2472
2017-09-08T07:04:31.395Z,2480
2017-09-08T07:05:11.950Z,2468
2017-09-08T07:05:52.516Z,2520
2017-09-08T07:06:33.073Z,2632
2017-09-08T07:07:14.611Z,2708
2017-09-08T07:07:55.181Z,2764
2017-09-08T07:08:35.708Z,2820
2017-09-08T07:09:16.262Z,2876
2017-09-08T07:09:56.803Z,2888
2017-09-08T07:10:37.330Z,2736
2017-09-08T07:11:17.864Z,2628
2017-09-08T07:11:58.396Z,2556
2017-09-08T07:12:38.984Z,2396
2017-09-08T07:13:19.588Z,2244
2017-09-08T07:14:00.046Z,2144
2017-09-08T07:14:40.587Z,2156
2017-09-08T07:15:21.161Z,2168
2017-09-08T07:16:01.714Z,2204
2017-09-08T07:16:42.251Z,2200
2017-09-08T07:17:22.768Z,2108
2017-09-08T07:18:03.342Z,2044
2017-09-08T07:18:43.904Z,1992
2017-09-08T07:19:24.443Z,1916
2017-09-08T07:20:04.961Z,1864
2017-09-08T07:20:45.518Z,1800
2017-09-08T07:21:26.110Z,1816
2017-09-08T07:22:06.626Z,1848
2017-09-08T07:22:47.171Z,1932
2017-09-08T07:23:27.707Z,2024
2017-09-08T07:24:08.248Z,2184
2017-09-08T07:24:48.794Z,2320
2017-09-08T07:25:29.338Z,2372
2017-09-08T07:26:09.876Z,2364
2017-09-08T07:26:50.448Z,2392
2017-09-08T07:27:30.989Z,2384
2017-09-08T07:28:11.525Z,2372
2017-09-08T07:28:52.083Z,2344
2017-09-08T07:29:32.594Z,2364
2017-09-08T07:30:13.195Z,2424
2017-09-08T07:30:53.752Z,2468
2017-09-08T07:31:34.308Z,2528
2017-09-08T07:32:14.897Z,2528
2017-09-08T07:32:55.386Z,2432
2017-09-08T07:33:35.903Z,2344
2017-09-08T07:34:16.455Z,2240
2017-09-08T07:34:57.017Z,2176
2017-09-08T07:35:37.567Z,2144
2017-09-08T07:36:18.106Z,2104
2017-09-08T07:36:58.689Z,2084
2017-09-08T07:37:39.208Z,2120
2017-09-08T07:38:19.760Z,2204
2017-09-08T07:39:00.261Z,2308
2017-09-08T07:39:40.835Z,2480
2017-09-08T07:40:21.479Z,2664
2017-09-08T07:41:01.916Z,2792
2017-09-08T07:41:42.479Z,2916
2017-09-08T07:42:23.040Z,3064
2017-09-08T07:43:03.547Z,3012
2017-09-08T07:43:44.097Z,3008
2017-09-08T07:44:24.702Z,3048
2017-09-08T07:45:05.297Z,3052
2017-09-08T07:45:46.446Z,3064
2017-09-08T07:46:26.362Z,3000
2017-09-08T07:47:06.889Z,2936
2017-09-08T07:47:47.435Z,2896
2017-09-08T07:48:27.957Z,2832
2017-09-08T07:49:08.533Z,2808
2017-09-08T07:49:49.049Z,2752
2017-09-08T07:50:29.584Z,2736
2017-09-08T07:51:10.128Z,2792
2017-09-08T07:51:50.686Z,2884
2017-09-08T07:52:31.233Z,3028
2017-09-08T07:53:11.781Z,3108
2017-09-08T07:53:52.344Z,3120
2017-09-08T07:54:32.903Z,3068
2017-09-08T07:55:13.453Z,3008
2017-09-08T07:55:53.992Z,2956
2017-09-08T07:56:34.573Z,2900
2017-09-08T07:57:15.088Z,2860
2017-09-08T07:57:55.649Z,2800
2017-09-08T07:58:36.202Z,2748
2017-09-08T07:59:16.756Z,2752
2017-09-08T07:59:57.326Z,2728
2017-09-08T08:00:37.867Z,2696
2017-09-08T08:01:18.425Z,2680
2017-09-08T08:01:58.981Z,2664
2017-09-08T08:02:39.559Z,2660
2017-09-08T08:03:20.107Z,2636
2017-09-08T08:04:00.683Z,2616
2017-09-08T08:04:41.240Z,2600
2017-09-08T08:05:21.798Z,2568
2017-09-08T08:06:02.371Z,2568
2017-09-08T08:06:42.928Z,2544
2017-09-08T08:07:23.485Z,2548
2017-09-08T08:08:04.060Z,2640
2017-09-08T08:08:44.640Z,2804
2017-09-08T08:09:25.194Z,2968
2017-09-08T08:10:05.751Z,3076
2017-09-08T08:10:46.312Z,3128
2017-09-08T08:11:26.854Z,3124
2017-09-08T08:12:07.393Z,3116
2017-09-08T08:12:47.964Z,3096
2017-09-08T08:13:28.596Z,3060
2017-09-08T08:14:09.122Z,3008
2017-09-08T08:14:49.620Z,2928
2017-09-08T08:15:30.180Z,2804
2017-09-08T08:16:10.744Z,2744
2017-09-08T08:16:51.310Z,2644
2017-09-08T08:17:31.873Z,2612
2017-09-08T08:18:12.432Z,2816
2017-09-08T08:18:53.012Z,3004
2017-09-08T08:19:33.574Z,3156
2017-09-08T08:20:14.132Z,3248
2017-09-08T08:20:54.749Z,3300
2017-09-08T08:21:35.225Z,3416
2017-09-08T08:22:15.772Z,3588
2017-09-08T08:22:56.296Z,3708
2017-09-08T08:23:36.802Z,3756
2017-09-08T08:24:17.361Z,4336
2017-09-08T08:24:57.950Z,4832
2017-09-08T08:25:38.524Z,5040
2017-09-08T08:26:19.070Z,4988
2017-09-08T08:26:59.602Z,4660
2017-09-08T08:27:40.184Z,4520
2017-09-08T08:28:20.754Z,4640
2017-09-08T08:29:01.350Z,4416
2017-09-08T08:29:41.911Z,4020
2017-09-08T08:30:22.479Z,3784
2017-09-08T08:31:03.039Z,3692
2017-09-08T08:31:43.580Z,3576
2017-09-08T08:32:24.146Z,3688
2017-09-08T08:33:04.701Z,4068
2017-09-08T08:33:45.261Z,4168
2017-09-08T08:34:25.836Z,4484
2017-09-08T08:35:06.347Z,4580
2017-09-08T08:35:46.903Z,4520
2017-09-08T08:36:27.488Z,4432
2017-09-08T08:37:08.053Z,4576
2017-09-08T08:37:48.602Z,4740
2017-09-08T08:38:29.106Z,4672
2017-09-08T08:39:09.633Z,4548
2017-09-08T08:39:50.207Z,4540
2017-09-08T08:40:30.762Z,4488
2017-09-08T08:41:11.287Z,4408
2017-09-08T08:41:51.853Z,4252
2017-09-08T08:42:32.353Z,3916
2017-09-08T08:43:12.921Z,3600
2017-09-08T08:43:53.482Z,3252
2017-09-08T08:44:34.047Z,3068
2017-09-08T08:45:14.608Z,2916
2017-09-08T08:45:55.166Z,2808
2017-09-08T08:46:35.754Z,2616
2017-09-08T08:47:16.310Z,2484
2017-09-08T08:47:56.854Z,2408
2017-09-08T08:48:37.442Z,2476
2017-09-08T08:49:17.988Z,2484
2017-09-08T08:49:58.600Z,2412
2017-09-08T08:50:39.174Z,2376
2017-09-08T08:51:19.756Z,2320
2017-09-08T08:52:00.233Z,2208
2017-09-08T08:52:40.794Z,2220
2017-09-08T08:53:21.368Z,2264
2017-09-08T08:54:01.952Z,2372
2017-09-08T08:54:42.503Z,2384
2017-09-08T08:55:23.086Z,2404
2017-09-08T08:56:03.645Z,2460
2017-09-08T08:56:44.197Z,2428
2017-09-08T08:57:24.725Z,2340
2017-09-08T08:58:05.321Z,2184
2017-09-08T08:58:45.835Z,2208
2017-09-08T08:59:26.384Z,2396
2017-09-08T09:00:06.996Z,2640
2017-09-08T09:00:47.635Z,2960
2017-09-08T09:01:28.125Z,3104
2017-09-08T09:02:08.682Z,3256
2017-09-08T09:02:49.225Z,3436
2017-09-08T09:03:29.800Z,3824
2017-09-08T09:04:10.362Z,4100
2017-09-08T09:04:50.936Z,4168
2017-09-08T09:05:31.497Z,4296
2017-09-08T09:06:11.976Z,4404
2017-09-08T09:06:52.545Z,4464
2017-09-08T09:07:33.117Z,4536
2017-09-08T09:08:13.721Z,4288
2017-09-08T09:08:54.234Z,4136
2017-09-08T09:09:34.745Z,4108
2017-09-08T09:10:15.311Z,4172
2017-09-08T09:10:55.868Z,4264
2017-09-08T09:11:36.416Z,4452
2017-09-08T09:12:16.956Z,4688
2017-09-08T09:12:57.514Z,4984
2017-09-08T09:13:38.061Z,5148
2017-09-08T09:14:18.602Z,5328
2017-09-08T09:14:59.154Z,5340
2017-09-08T09:15:39.769Z,5200
2017-09-08T09:16:20.266Z,4760
2017-09-08T09:17:00.809Z,4380
2017-09-08T09:17:41.362Z,4132
2017-09-08T09:18:21.915Z,4020
2017-09-08T09:19:02.485Z,3600
2017-09-08T09:19:43.044Z,3492
2017-09-08T09:20:23.621Z,3652
2017-09-08T09:21:04.202Z,3796
2017-09-08T09:21:44.783Z,3860
2017-09-08T09:22:25.347Z,3756
2017-09-08T09:23:05.889Z,3632
2017-09-08T09:23:46.466Z,3680
2017-09-08T09:24:27.023Z,3700
2017-09-08T09:25:07.577Z,3452
2017-09-08T09:25:48.149Z,3264
2017-09-08T09:26:28.702Z,3064
2017-09-08T09:27:09.271Z,2848
2017-09-08T09:27:49.845Z,2640
2017-09-08T09:28:30.432Z,2440
2017-09-08T09:29:10.986Z,2348
2017-09-08T09:29:51.562Z,2376
2017-09-08T09:30:32.111Z,2416
2017-09-08T09:31:12.690Z,2392
2017-09-08T09:31:53.227Z,2240